createdAt,value
2019-02-11T00:00:01.344Z,293.38
2019-02-11T00:01:01.467Z,293.30
2019-02-11T00:02:01.232Z,293.92
2019-02-11T00:03:01.211Z,293.22
2019-02-11T00:04:01.194Z,293.54
2019-02-11T00:05:01.198Z,293.00
2019-02-11T00:06:01.175Z,293.34
2019-02-11T00:07:01.238Z,293.16
2019-02-11T00:08:01.160Z,293.47
2019-02-11T00:09:01.170Z,293.25
2019-02-11T00:10:01.281Z,293.21
2019-02-11T00:11:01.116Z,293.53
2019-02-11T00:12:01.162Z,293.55
2019-02-11T00:13:01.105Z,293.32
2019-02-11T00:14:01.083Z,293.59
2019-02-11T00:15:01.101Z,293.28
2019-02-11T00:16:01.091Z,293.28
2019-02-11T00:17:01.067Z,293.24
2019-02-11T00:18:01.040Z,293.38
2019-02-11T00:19:01.080Z,293.08
2019-02-11T00:20:01.053Z,293.17
2019-02-11T00:21:01.028Z,293.45
2019-02-11T00:22:01.010Z,293.57
2019-02-11T00:23:08.254Z,293.42
2019-02-11T00:24:09.119Z,293.03
2019-02-11T00:25:08.403Z,293.11
2019-02-11T00:26:09.262Z,293.07
2019-02-11T00:28:12.043Z,292.03
2019-02-11T00:29:18.773Z,293.33
2019-02-11T00:30:21.563Z,293.30
2019-02-11T00:31:19.170Z,293.64
2019-02-11T00:32:11.547Z,293.48
2019-02-11T00:33:11.540Z,293.23
2019-02-11T00:34:11.551Z,293.78
2019-02-11T00:35:11.523Z,293.43
2019-02-11T00:36:11.474Z,293.25
2019-02-11T00:37:11.480Z,293.03
2019-02-11T00:38:11.484Z,293.14
2019-02-11T00:39:11.494Z,293.39
2019-02-11T00:40:19.776Z,293.31
2019-02-11T00:41:11.486Z,293.41
2019-02-11T00:42:11.443Z,293.47
2019-02-11T00:43:19.005Z,293.10
2019-02-11T00:44:12.476Z,293.73
2019-02-11T00:45:11.408Z,293.00
2019-02-11T00:46:11.425Z,293.03
2019-02-11T00:47:11.373Z,293.44
2019-02-11T00:48:12.015Z,293.17
2019-02-11T00:49:11.364Z,293.35
2019-02-11T00:50:11.360Z,293.48
2019-02-11T00:51:12.024Z,293.47
2019-02-11T00:52:11.312Z,293.42
2019-02-11T00:53:11.300Z,293.64
2019-02-11T00:54:11.307Z,293.77
2019-02-11T00:55:11.323Z,293.45
2019-02-11T00:56:11.282Z,293.47
2019-02-11T00:57:11.263Z,293.22
2019-02-11T00:58:11.244Z,293.26
2019-02-11T00:59:11.240Z,293.42
2019-02-11T01:00:11.249Z,293.23
2019-02-11T01:01:18.503Z,293.49
2019-02-11T01:02:18.540Z,293.63
2019-02-11T01:03:11.432Z,293.78
2019-02-11T01:04:11.226Z,293.21
2019-02-11T01:05:11.352Z,293.36
2019-02-11T01:06:12.090Z,293.79
2019-02-11T01:07:12.101Z,293.54
2019-02-11T01:08:11.163Z,293.36
2019-02-11T01:09:11.160Z,293.59
2019-02-11T01:10:11.155Z,293.65
2019-02-11T01:11:11.106Z,293.46
2019-02-11T01:12:11.122Z,293.33
2019-02-11T01:13:11.158Z,293.50
2019-02-11T01:14:11.098Z,293.43
2019-02-11T01:15:11.125Z,293.67
2019-02-11T01:16:11.053Z,293.44
2019-02-11T01:17:11.077Z,293.32
2019-02-11T01:18:11.151Z,293.89
2019-02-11T01:19:19.012Z,293.45
2019-02-11T01:20:19.668Z,293.82
2019-02-11T01:21:11.022Z,293.37
2019-02-11T01:22:11.049Z,293.46
2019-02-11T01:23:11.134Z,293.14
2019-02-11T01:24:11.208Z,292.80
2019-02-11T01:25:11.109Z,293.20
2019-02-11T01:26:11.625Z,293.36
2019-02-11T01:27:10.937Z,293.25
2019-02-11T01:28:10.923Z,293.83
2019-02-11T01:29:10.916Z,293.30
2019-02-11T01:30:10.939Z,292.98
2019-02-11T01:31:10.929Z,293.66
2019-02-11T01:32:10.932Z,292.97
2019-02-11T01:33:10.883Z,293.35
2019-02-11T01:34:10.866Z,293.25
2019-02-11T01:35:10.884Z,292.93
2019-02-11T01:36:10.862Z,293.43
2019-02-11T01:37:10.841Z,293.15
2019-02-11T01:38:10.837Z,293.23
2019-02-11T01:39:10.815Z,292.48
2019-02-11T01:40:10.818Z,293.02
2019-02-11T01:41:10.847Z,292.86
2019-02-11T01:42:10.783Z,293.07
2019-02-11T01:43:10.809Z,293.12
2019-02-11T01:44:10.772Z,292.97
2019-02-11T01:45:10.782Z,292.90
2019-02-11T01:46:10.760Z,292.71
2019-02-11T01:47:10.744Z,292.83
2019-02-11T01:48:10.728Z,293.01
2019-02-11T01:49:10.715Z,292.93
2019-02-11T01:50:10.727Z,292.81
2019-02-11T01:51:10.771Z,292.90
2019-02-11T01:52:10.685Z,293.18
2019-02-11T01:53:10.755Z,292.88
2019-02-11T01:54:10.668Z,292.98
2019-02-11T01:55:10.701Z,292.95
2019-02-11T01:56:10.655Z,292.72
2019-02-11T01:57:10.670Z,292.79
2019-02-11T01:58:11.136Z,293.11
2019-02-11T01:59:10.637Z,292.73
2019-02-11T02:00:11.135Z,293.26
2019-02-11T02:01:10.593Z,293.19
2019-02-11T02:02:10.567Z,293.28
2019-02-11T02:03:10.566Z,293.29
2019-02-11T02:04:10.540Z,292.98
2019-02-11T02:05:10.567Z,293.40
2019-02-11T02:06:10.552Z,292.85
2019-02-11T02:07:10.539Z,293.02
2019-02-11T02:08:10.506Z,293.04
2019-02-11T02:09:10.494Z,293.34
2019-02-11T02:10:10.512Z,293.28
2019-02-11T02:11:10.523Z,293.15
2019-02-11T02:12:10.456Z,292.95
2019-02-11T02:13:10.469Z,293.65
2019-02-11T02:14:10.475Z,293.23
2019-02-11T02:15:10.681Z,293.33
2019-02-11T02:16:10.437Z,293.15
2019-02-11T02:17:10.424Z,293.58
2019-02-11T02:18:17.693Z,293.39
2019-02-11T02:19:10.426Z,293.31
2019-02-11T02:20:10.620Z,293.38
2019-02-11T02:21:10.516Z,292.99
2019-02-11T02:22:10.367Z,293.61
2019-02-11T02:23:10.350Z,293.80
2019-02-11T02:24:10.335Z,294.13
2019-02-11T02:25:10.330Z,293.58
2019-02-11T02:26:10.359Z,293.77
2019-02-11T02:27:10.301Z,293.60
2019-02-11T02:28:10.317Z,293.76
2019-02-11T02:29:10.282Z,293.73
2019-02-11T02:30:10.270Z,293.27
2019-02-11T02:31:10.310Z,293.66
2019-02-11T02:32:10.257Z,293.74
2019-02-11T02:33:10.246Z,293.92
2019-02-11T02:34:10.248Z,293.98
2019-02-11T02:35:10.219Z,293.59
2019-02-11T02:36:10.239Z,293.29
2019-02-11T02:37:10.199Z,293.59
2019-02-11T02:38:10.191Z,293.77
2019-02-11T02:39:10.194Z,293.77
2019-02-11T02:40:11.140Z,293.89
2019-02-11T02:41:10.179Z,293.48
2019-02-11T02:42:10.203Z,293.98
2019-02-11T02:43:10.131Z,294.15
2019-02-11T02:44:10.137Z,293.52
2019-02-11T02:45:10.117Z,293.93
2019-02-11T02:46:10.137Z,293.81
2019-02-11T02:47:10.095Z,293.53
2019-02-11T02:48:10.112Z,293.91
2019-02-11T02:49:10.106Z,293.78
2019-02-11T02:50:10.073Z,293.51
2019-02-11T02:51:10.087Z,293.79
2019-02-11T02:52:17.138Z,293.49
2019-02-11T02:53:10.031Z,294.06
2019-02-11T02:54:10.021Z,293.45
2019-02-11T02:55:10.012Z,293.48
2019-02-11T02:56:17.145Z,293.42
2019-02-11T02:57:10.000Z,293.29
2019-02-11T02:58:10.012Z,293.74
2019-02-11T02:59:09.995Z,293.35
2019-02-11T03:00:10.035Z,293.72
2019-02-11T03:01:10.690Z,293.52
2019-02-11T03:02:09.956Z,293.31
2019-02-11T03:03:09.957Z,293.53
2019-02-11T03:04:09.946Z,293.64
2019-02-11T03:05:09.967Z,293.57
2019-02-11T03:06:09.918Z,293.60
2019-02-11T03:07:09.878Z,293.71
2019-02-11T03:08:09.871Z,293.54
2019-02-11T03:09:09.864Z,293.59
2019-02-11T03:10:09.879Z,293.80
2019-02-11T03:11:09.880Z,294.08
2019-02-11T03:12:09.916Z,293.32
2019-02-11T03:13:10.205Z,293.50
2019-02-11T03:14:09.821Z,293.61
2019-02-11T03:15:09.800Z,293.34
2019-02-11T03:16:09.813Z,293.44
2019-02-11T03:17:09.774Z,293.52
2019-02-11T03:18:09.756Z,293.67
2019-02-11T03:19:09.751Z,293.78
2019-02-11T03:20:09.741Z,293.71
2019-02-11T03:21:09.753Z,293.83
2019-02-11T03:22:09.730Z,293.36
2019-02-11T03:23:09.710Z,293.82
2019-02-11T03:24:09.694Z,293.98
2019-02-11T03:25:09.689Z,293.47
2019-02-11T03:26:09.693Z,293.97
2019-02-11T03:27:09.681Z,294.03
2019-02-11T03:28:09.666Z,293.87
2019-02-11T03:29:09.649Z,294.05
2019-02-11T03:30:09.695Z,293.90
2019-02-11T03:31:09.647Z,293.76
2019-02-11T03:32:09.618Z,294.05
2019-02-11T03:33:09.610Z,293.50
2019-02-11T03:34:09.601Z,293.82
2019-02-11T03:35:09.666Z,293.80
2019-02-11T03:36:09.599Z,293.83
2019-02-11T03:37:09.569Z,293.93
2019-02-11T03:38:09.598Z,294.25
2019-02-11T03:39:09.528Z,293.70
2019-02-11T03:40:09.533Z,293.92
2019-02-11T03:41:09.562Z,294.09
2019-02-11T03:42:09.496Z,293.52
2019-02-11T03:43:09.501Z,293.90
2019-02-11T03:44:14.993Z,293.94
2019-02-11T03:45:10.470Z,293.88
2019-02-11T03:46:09.487Z,293.64
2019-02-11T03:47:09.443Z,293.88
2019-02-11T03:48:09.440Z,294.14
2019-02-11T03:49:09.420Z,294.34
2019-02-11T03:50:09.418Z,294.21
2019-02-11T03:51:09.420Z,293.83
2019-02-11T03:52:09.404Z,294.26
2019-02-11T03:53:09.389Z,294.24
2019-02-11T03:54:09.378Z,294.06
2019-02-11T03:55:09.368Z,294.13
2019-02-11T03:56:09.430Z,294.25
2019-02-11T03:57:09.358Z,294.50
2019-02-11T03:58:09.354Z,294.42
2019-02-11T03:59:09.332Z,293.92
2019-02-11T04:00:09.308Z,294.49
2019-02-11T04:01:09.325Z,294.47
2019-02-11T04:02:09.317Z,294.00
2019-02-11T04:03:09.324Z,294.47
2019-02-11T04:04:09.283Z,294.59
2019-02-11T04:05:09.276Z,294.09
2019-02-11T04:06:09.270Z,294.36
2019-02-11T04:07:09.245Z,293.96
2019-02-11T04:08:09.247Z,294.66
2019-02-11T04:09:09.243Z,294.30
2019-02-11T04:10:09.241Z,294.29
2019-02-11T04:11:09.233Z,294.66
2019-02-11T04:12:09.190Z,293.95
2019-02-11T04:13:09.200Z,294.22
2019-02-11T04:14:09.170Z,294.77
2019-02-11T04:15:09.178Z,294.30
2019-02-11T04:16:09.169Z,294.63
2019-02-11T04:17:09.138Z,294.18
2019-02-11T04:18:17.197Z,294.52
2019-02-11T04:19:16.234Z,294.46
2019-02-11T04:20:16.826Z,294.04
2019-02-11T04:21:16.323Z,294.29
2019-02-11T04:22:16.165Z,294.08
2019-02-11T04:23:17.221Z,294.47
2019-02-11T04:24:16.170Z,294.52
2019-02-11T04:25:17.443Z,294.62
2019-02-11T04:26:22.175Z,294.76
2019-02-11T04:27:16.077Z,293.77
2019-02-11T04:28:16.200Z,294.47
2019-02-11T04:29:18.016Z,294.42
2019-02-11T04:30:17.562Z,294.42
2019-02-11T04:31:16.117Z,294.40
2019-02-11T04:32:24.800Z,294.19
2019-02-11T04:33:17.536Z,294.27
2019-02-11T04:34:09.018Z,294.68
2019-02-11T04:35:08.975Z,294.40
2019-02-11T04:36:08.942Z,294.04
2019-02-11T04:37:08.962Z,294.26
2019-02-11T04:38:08.916Z,294.21
2019-02-11T04:39:08.900Z,294.40
2019-02-11T04:40:08.891Z,294.65
2019-02-11T04:41:08.869Z,294.65
2019-02-11T04:42:08.882Z,294.35
2019-02-11T04:43:08.852Z,294.46
2019-02-11T04:44:08.855Z,293.96
2019-02-11T04:45:08.838Z,294.50
2019-02-11T04:46:08.859Z,294.34
2019-02-11T04:47:09.683Z,294.18
2019-02-11T04:48:08.810Z,294.62
2019-02-11T04:49:08.810Z,294.92
2019-02-11T04:50:08.787Z,294.40
2019-02-11T04:51:08.774Z,294.30
2019-02-11T04:52:08.789Z,294.63
2019-02-11T04:53:08.760Z,294.41
2019-02-11T04:54:08.744Z,294.60
2019-02-11T04:55:08.759Z,294.08
2019-02-11T04:56:08.733Z,294.11
2019-02-11T04:57:08.737Z,294.19
2019-02-11T04:58:08.725Z,294.54
2019-02-11T04:59:08.682Z,294.49
2019-02-11T05:00:08.686Z,294.66
2019-02-11T05:01:08.665Z,294.09
2019-02-11T05:02:08.682Z,294.39
2019-02-11T05:03:08.660Z,294.25
2019-02-11T05:04:08.661Z,293.58
2019-02-11T05:05:08.625Z,294.40
2019-02-11T05:06:08.621Z,294.12
2019-02-11T05:07:08.649Z,294.06
2019-02-11T05:08:08.615Z,294.21
2019-02-11T05:09:08.621Z,293.74
2019-02-11T05:10:08.584Z,294.26
2019-02-11T05:11:08.559Z,294.46
2019-02-11T05:12:08.586Z,293.95
2019-02-11T05:13:08.552Z,293.96
2019-02-11T05:14:08.546Z,293.92
2019-02-11T05:15:08.543Z,294.23
2019-02-11T05:16:08.509Z,293.77
2019-02-11T05:17:08.563Z,294.29
2019-02-11T05:18:16.919Z,294.21
2019-02-11T05:19:17.251Z,294.09
2019-02-11T05:20:08.484Z,294.28
2019-02-11T05:21:08.469Z,294.39
2019-02-11T05:22:08.489Z,293.91
2019-02-11T05:23:08.438Z,293.63
2019-02-11T05:24:08.411Z,293.97
2019-02-11T05:25:08.410Z,293.84
2019-02-11T05:26:08.407Z,294.31
2019-02-11T05:27:08.420Z,294.18
2019-02-11T05:28:08.384Z,294.21
2019-02-11T05:29:08.389Z,293.66
2019-02-11T05:30:08.363Z,294.09
2019-02-11T05:31:08.357Z,294.39
2019-02-11T05:32:08.365Z,294.31
2019-02-11T05:33:08.353Z,294.25
2019-02-11T05:34:08.321Z,294.05
2019-02-11T05:35:08.335Z,294.14
2019-02-11T05:36:08.307Z,293.99
2019-02-11T05:37:08.296Z,294.02
2019-02-11T05:38:08.277Z,294.45
2019-02-11T05:39:08.288Z,294.10
2019-02-11T05:40:08.252Z,293.95
2019-02-11T05:41:08.231Z,294.21
2019-02-11T05:42:08.275Z,294.24
2019-02-11T05:43:08.211Z,294.14
2019-02-11T05:44:08.215Z,293.55
2019-02-11T05:45:08.221Z,294.13
2019-02-11T05:46:08.207Z,294.17
2019-02-11T05:47:16.813Z,294.13
2019-02-11T05:48:17.357Z,294.05
2019-02-11T05:49:15.814Z,294.28
2019-02-11T05:50:08.161Z,293.92
2019-02-11T05:51:15.270Z,294.08
2019-02-11T05:52:16.416Z,293.96
2019-02-11T05:53:15.401Z,294.13
2019-02-11T05:54:08.250Z,294.10
2019-02-11T05:55:08.128Z,293.77
2019-02-11T05:56:08.173Z,294.19
2019-02-11T05:57:16.910Z,294.13
2019-02-11T05:58:08.104Z,293.84
2019-02-11T05:59:08.073Z,294.02
2019-02-11T06:00:08.278Z,293.63
2019-02-11T06:01:08.077Z,293.96
2019-02-11T06:02:08.031Z,294.28
2019-02-11T06:03:09.486Z,293.53
2019-02-11T06:04:08.001Z,293.88
2019-02-11T06:05:07.973Z,293.76
2019-02-11T06:06:07.979Z,293.49
2019-02-11T06:07:07.982Z,294.08
2019-02-11T06:08:07.977Z,293.94
2019-02-11T06:09:07.946Z,294.11
2019-02-11T06:10:07.949Z,294.29
2019-02-11T06:11:07.951Z,294.01
2019-02-11T06:12:07.934Z,293.44
2019-02-11T06:13:07.919Z,294.00
2019-02-11T06:14:07.926Z,294.08
2019-02-11T06:15:07.988Z,293.84
2019-02-11T06:16:07.886Z,293.66
2019-02-11T06:17:07.892Z,294.33
2019-02-11T06:18:07.861Z,293.97
2019-02-11T06:19:07.855Z,293.65
2019-02-11T06:20:07.859Z,293.78
2019-02-11T06:21:07.852Z,294.01
2019-02-11T06:22:07.830Z,293.54
2019-02-11T06:23:07.816Z,293.86
2019-02-11T06:24:07.787Z,293.67
2019-02-11T06:25:07.791Z,293.70
2019-02-11T06:26:07.843Z,294.35
2019-02-11T06:27:07.875Z,294.03
2019-02-11T06:28:07.753Z,293.52
2019-02-11T06:29:08.333Z,294.11
2019-02-11T06:30:07.735Z,293.77
2019-02-11T06:31:07.739Z,294.04
2019-02-11T06:32:07.736Z,293.80
2019-02-11T06:33:07.705Z,293.66
2019-02-11T06:34:07.703Z,294.52
2019-02-11T06:35:07.665Z,294.07
2019-02-11T06:36:12.332Z,293.84
2019-02-11T06:37:07.678Z,293.77
2019-02-11T06:38:07.662Z,293.89
2019-02-11T06:39:07.643Z,293.63
2019-02-11T06:40:07.621Z,293.97
2019-02-11T06:41:07.614Z,294.29
2019-02-11T06:42:07.623Z,294.08
2019-02-11T06:43:07.634Z,294.04
2019-02-11T06:44:08.640Z,293.63
2019-02-11T06:45:13.121Z,293.62
2019-02-11T06:46:08.582Z,294.05
2019-02-11T06:47:07.570Z,294.24
2019-02-11T06:48:07.561Z,294.27
2019-02-11T06:49:07.545Z,294.03
2019-02-11T06:50:07.616Z,293.86
2019-02-11T06:51:07.517Z,294.12
2019-02-11T06:52:07.496Z,293.72
2019-02-11T06:53:07.517Z,293.92
2019-02-11T06:54:07.478Z,293.70
2019-02-11T06:55:07.466Z,294.05
2019-02-11T06:56:07.472Z,293.86
2019-02-11T06:57:07.439Z,293.94
2019-02-11T06:58:07.448Z,293.86
2019-02-11T06:59:07.427Z,294.20
2019-02-11T07:00:07.413Z,294.01
2019-02-11T07:01:07.401Z,293.88
2019-02-11T07:02:07.377Z,293.94
2019-02-11T07:03:07.388Z,294.09
2019-02-11T07:04:07.383Z,293.63
2019-02-11T07:05:07.370Z,293.89
2019-02-11T07:06:07.354Z,294.06
2019-02-11T07:07:07.320Z,293.87
2019-02-11T07:08:08.094Z,294.42
2019-02-11T07:09:07.319Z,293.93
2019-02-11T07:10:07.295Z,294.24
2019-02-11T07:11:07.310Z,294.14
2019-02-11T07:12:07.314Z,293.45
2019-02-11T07:13:07.283Z,293.86
2019-02-11T07:14:07.257Z,294.92
2019-02-11T07:15:11.933Z,294.59
2019-02-11T07:16:07.273Z,294.07
2019-02-11T07:17:07.242Z,293.94
2019-02-11T07:18:07.240Z,293.75
2019-02-11T07:19:07.226Z,293.82
2019-02-11T07:20:07.229Z,294.38
2019-02-11T07:21:07.210Z,294.18
2019-02-11T07:22:07.190Z,293.81
2019-02-11T07:23:07.194Z,293.99
2019-02-11T07:24:07.230Z,294.25
2019-02-11T07:25:16.612Z,293.70
2019-02-11T07:26:07.228Z,294.26
2019-02-11T07:27:07.172Z,294.09
2019-02-11T07:28:07.153Z,293.44
2019-02-11T07:29:07.131Z,293.70
2019-02-11T07:30:07.109Z,294.10
2019-02-11T07:31:07.157Z,293.96
2019-02-11T07:32:07.111Z,293.97
2019-02-11T07:33:07.401Z,293.89
2019-02-11T07:34:07.082Z,294.22
2019-02-11T07:35:07.057Z,293.91
2019-02-11T07:36:07.094Z,294.13
2019-02-11T07:37:07.018Z,294.07
2019-02-11T07:38:07.052Z,294.19
2019-02-11T07:39:07.009Z,294.08
2019-02-11T07:40:07.019Z,294.18
2019-02-11T07:41:07.009Z,294.08
2019-02-11T07:42:06.975Z,294.35
2019-02-11T07:43:06.981Z,294.16
2019-02-11T07:44:06.942Z,294.06
2019-02-11T07:45:06.943Z,293.90
2019-02-11T07:46:06.977Z,294.19
2019-02-11T07:47:06.942Z,293.88
2019-02-11T07:48:06.940Z,293.89
2019-02-11T07:49:06.927Z,293.87
2019-02-11T07:50:06.877Z,293.84
2019-02-11T07:51:06.878Z,294.31
2019-02-11T07:52:06.885Z,293.90
2019-02-11T07:53:06.908Z,294.07
2019-02-11T07:54:06.865Z,294.25
2019-02-11T07:55:06.852Z,294.18
2019-02-11T07:56:06.902Z,294.27
2019-02-11T07:57:09.412Z,294.24
2019-02-11T07:58:06.826Z,294.27
2019-02-11T07:59:06.800Z,294.33
2019-02-11T08:00:06.795Z,293.91
2019-02-11T08:01:06.809Z,294.36
2019-02-11T08:02:06.772Z,293.68
2019-02-11T08:03:06.754Z,294.09
2019-02-11T08:04:06.734Z,294.03
2019-02-11T08:05:06.724Z,293.85
2019-02-11T08:06:06.740Z,294.05
2019-02-11T08:07:06.691Z,293.68
2019-02-11T08:08:06.737Z,293.92
2019-02-11T08:09:06.847Z,293.51
2019-02-11T08:10:17.452Z,293.73
2019-02-11T08:11:14.770Z,293.99
2019-02-11T08:12:13.736Z,293.20
2019-02-11T08:13:13.845Z,293.43
2019-02-11T08:14:13.731Z,293.62
2019-02-11T08:15:14.789Z,293.62
2019-02-11T08:16:13.710Z,293.86
2019-02-11T08:17:14.610Z,293.74
2019-02-11T08:18:14.718Z,293.54
2019-02-11T08:19:14.797Z,293.81
2019-02-11T08:20:14.221Z,293.88
2019-02-11T08:21:17.691Z,293.58
2019-02-11T08:22:13.606Z,293.56
2019-02-11T08:23:15.681Z,293.73
2019-02-11T08:24:14.313Z,293.65
2019-02-11T08:25:06.561Z,293.40
2019-02-11T08:26:06.574Z,293.32
2019-02-11T08:27:06.507Z,293.26
2019-02-11T08:28:06.515Z,293.18
2019-02-11T08:29:06.483Z,293.78
2019-02-11T08:30:06.468Z,293.74
2019-02-11T08:31:06.486Z,293.44
2019-02-11T08:32:06.428Z,293.70
2019-02-11T08:33:06.451Z,294.02
2019-02-11T08:34:06.523Z,293.59
2019-02-11T08:35:06.420Z,293.89
2019-02-11T08:36:06.384Z,293.46
2019-02-11T08:37:06.392Z,293.77
2019-02-11T08:38:06.383Z,294.11
2019-02-11T08:39:07.270Z,294.00
2019-02-11T08:40:21.331Z,293.88
2019-02-11T08:41:06.379Z,293.99
2019-02-11T08:43:22.978Z,292.78
2019-02-11T08:44:33.532Z,293.99
2019-02-11T08:45:30.830Z,293.77
2019-02-11T08:46:31.928Z,294.53
2019-02-11T08:48:42.441Z,293.28
2019-02-11T08:49:41.843Z,293.94
2019-02-11T08:50:41.611Z,294.22
2019-02-11T08:51:41.516Z,293.63
2019-02-11T08:52:41.677Z,294.17
2019-02-11T08:53:42.347Z,294.36
2019-02-11T08:54:41.633Z,294.19
2019-02-11T08:55:41.491Z,293.74
2019-02-11T08:56:41.447Z,294.29
2019-02-11T08:57:41.479Z,294.03
2019-02-11T08:58:41.439Z,294.33
2019-02-11T08:59:41.487Z,293.84
2019-02-11T09:00:41.567Z,293.62
2019-02-11T09:01:41.429Z,294.23
2019-02-11T09:02:41.418Z,294.07
2019-02-11T09:03:42.143Z,293.96
2019-02-11T09:04:41.943Z,293.81
2019-02-11T09:07:13.615Z,294.09
2019-02-11T09:08:14.160Z,293.57
2019-02-11T09:09:13.948Z,293.92
2019-02-11T09:10:14.089Z,294.24
2019-02-11T09:11:16.923Z,293.74
2019-02-11T09:12:12.020Z,293.71
2019-02-11T09:13:12.014Z,293.62
2019-02-11T09:14:12.344Z,293.46
2019-02-11T09:15:11.894Z,293.62
2019-02-11T09:16:12.810Z,293.77
2019-02-11T09:17:11.883Z,293.82
2019-02-11T09:18:11.974Z,294.31
2019-02-11T09:19:11.894Z,294.02
2019-02-11T09:20:11.809Z,293.53
2019-02-11T09:21:20.977Z,293.95
2019-02-11T09:23:32.695Z,293.61
2019-02-11T09:24:32.602Z,293.78
2019-02-11T09:25:32.466Z,293.59
2019-02-11T09:26:32.369Z,293.89
2019-02-11T09:27:33.321Z,293.65
2019-02-11T09:28:32.359Z,294.05
2019-02-11T09:29:33.234Z,294.12
2019-02-11T09:30:32.446Z,293.63
2019-02-11T09:31:33.016Z,294.06
2019-02-11T09:32:32.301Z,293.50
2019-02-11T09:33:32.282Z,293.55
2019-02-11T09:34:33.311Z,293.83
2019-02-11T09:35:32.355Z,293.73
2019-02-11T09:36:32.977Z,293.83
2019-02-11T09:37:32.240Z,294.12
2019-02-11T09:38:32.248Z,294.00
2019-02-11T09:39:32.249Z,293.82
2019-02-11T09:40:42.534Z,293.85
2019-02-11T09:41:39.972Z,294.33
2019-02-11T09:42:32.255Z,294.14
2019-02-11T09:43:40.385Z,294.27
2019-02-11T09:44:39.265Z,293.89
2019-02-11T09:45:40.219Z,294.12
2019-02-11T09:46:32.359Z,293.70
2019-02-11T09:47:32.452Z,293.65
2019-02-11T09:48:32.127Z,293.59
2019-02-11T09:49:32.203Z,293.99
2019-02-11T09:50:41.413Z,293.72
2019-02-11T09:51:39.324Z,294.12
2019-02-11T09:52:40.885Z,293.68
2019-02-11T09:53:40.183Z,293.58
2019-02-11T09:54:41.155Z,293.70
2019-02-11T09:55:32.214Z,294.30
2019-02-11T09:56:32.068Z,294.09
2019-02-11T09:57:32.943Z,293.75
2019-02-11T09:58:32.012Z,293.48
2019-02-11T09:59:32.030Z,294.04
2019-02-11T10:00:32.004Z,293.88
2019-02-11T10:01:32.057Z,293.60
2019-02-11T10:02:31.949Z,294.08
2019-02-11T10:03:39.092Z,293.95
2019-02-11T10:04:39.646Z,293.91
2019-02-11T10:05:32.599Z,293.83
2019-02-11T10:06:31.975Z,294.31
2019-02-11T10:07:31.977Z,294.04
2019-02-11T10:08:32.050Z,293.85
2019-02-11T10:09:31.942Z,293.41
2019-02-11T10:10:31.913Z,293.90
2019-02-11T10:11:32.534Z,294.05
2019-02-11T10:13:54.520Z,293.32
2019-02-11T10:15:03.323Z,293.82
2019-02-11T10:15:54.521Z,293.98
2019-02-11T10:16:54.421Z,293.56
2019-02-11T10:17:54.387Z,293.55
2019-02-11T10:19:04.491Z,293.50
2019-02-11T10:19:54.481Z,293.96
2019-02-11T10:20:54.453Z,293.63
2019-02-11T10:21:54.357Z,294.26
2019-02-11T10:23:02.544Z,293.94
2019-02-11T10:23:54.545Z,293.59
2019-02-11T10:24:54.397Z,293.92
2019-02-11T10:25:55.969Z,293.86
2019-02-11T10:26:54.380Z,294.00
2019-02-11T10:27:54.286Z,293.88
2019-02-11T10:30:12.452Z,293.08
2019-02-11T10:31:11.845Z,294.04
2019-02-11T10:32:11.863Z,294.27
2019-02-11T10:33:11.761Z,293.66
2019-02-11T10:34:12.693Z,293.91
2019-02-11T10:35:11.836Z,294.16
2019-02-11T10:36:11.739Z,293.55
2019-02-11T10:37:12.024Z,293.77
2019-02-11T10:38:12.691Z,294.49
2019-02-11T10:39:12.181Z,294.10
2019-02-11T10:40:11.714Z,294.06
2019-02-11T10:41:11.774Z,293.81
2019-02-11T10:42:11.778Z,294.10
2019-02-11T10:43:13.727Z,293.95
2019-02-11T10:44:12.368Z,293.59
2019-02-11T10:45:14.314Z,293.68
2019-02-11T10:46:11.652Z,293.95
2019-02-11T10:47:12.191Z,293.60
2019-02-11T10:48:11.704Z,294.01
2019-02-11T10:49:11.737Z,294.07
2019-02-11T10:50:11.627Z,294.13
2019-02-11T10:51:11.601Z,293.89
2019-02-11T10:52:12.282Z,293.48
2019-02-11T10:53:11.661Z,293.76
2019-02-11T10:54:11.652Z,294.08
2019-02-11T10:55:16.243Z,293.78
2019-02-11T10:56:11.575Z,293.62
2019-02-11T10:57:11.595Z,293.57
2019-02-11T10:58:11.564Z,293.70
2019-02-11T10:59:11.493Z,293.19
2019-02-11T11:00:11.554Z,293.86
2019-02-11T11:01:13.191Z,293.67
2019-02-11T11:02:24.766Z,293.94
2019-02-11T11:03:12.689Z,293.70
2019-02-11T11:04:11.466Z,293.22
2019-02-11T11:05:11.560Z,293.25
2019-02-11T11:06:12.322Z,293.70
2019-02-11T11:07:12.378Z,293.28
2019-02-11T11:08:12.225Z,293.34
2019-02-11T11:09:11.476Z,293.26
2019-02-11T11:10:11.428Z,293.96
2019-02-11T11:11:11.402Z,293.32
2019-02-11T11:12:12.313Z,293.30
2019-02-11T11:13:11.481Z,293.63
2019-02-11T11:14:12.225Z,293.77
2019-02-11T11:15:11.418Z,293.49
2019-02-11T11:16:20.715Z,293.57
2019-02-11T11:17:11.674Z,293.41
2019-02-11T11:18:11.398Z,293.65
2019-02-11T11:19:11.538Z,293.61
2019-02-11T11:20:11.372Z,293.35
2019-02-11T11:21:12.402Z,293.59
2019-02-11T11:22:11.331Z,293.84
2019-02-11T11:24:24.303Z,292.90
2019-02-11T11:25:24.577Z,293.93
2019-02-11T11:26:24.873Z,293.66
2019-02-11T11:27:24.424Z,293.70
2019-02-11T11:28:24.353Z,293.32
2019-02-11T11:29:24.170Z,293.64
2019-02-11T11:30:24.300Z,293.85
2019-02-11T11:31:24.147Z,293.14
2019-02-11T11:32:24.113Z,293.03
2019-02-11T11:36:07.565Z,292.30
2019-02-11T11:37:16.432Z,293.29
2019-02-11T11:38:15.573Z,293.37
2019-02-11T11:39:16.520Z,293.53
2019-02-11T11:40:15.701Z,293.44
2019-02-11T11:41:07.429Z,293.78
2019-02-11T11:42:07.425Z,293.27
2019-02-11T11:43:07.657Z,293.33
2019-02-11T11:44:07.454Z,293.40
2019-02-11T11:45:07.451Z,293.33
2019-02-11T11:46:07.415Z,293.30
2019-02-11T11:47:07.419Z,293.50
2019-02-11T11:48:07.393Z,293.15
2019-02-11T11:49:07.380Z,293.67
2019-02-11T11:50:07.451Z,292.96
2019-02-11T11:51:07.356Z,293.58
2019-02-11T11:52:07.323Z,293.01
2019-02-11T11:53:07.391Z,292.99
2019-02-11T11:54:07.329Z,293.58
2019-02-11T11:55:07.396Z,293.00
2019-02-11T11:56:07.334Z,293.24
2019-02-11T11:57:07.356Z,293.23
2019-02-11T11:58:07.301Z,293.39
2019-02-11T11:59:07.600Z,292.81
2019-02-11T12:00:07.339Z,293.21
2019-02-11T12:01:07.271Z,292.99
2019-02-11T12:02:07.285Z,293.29
2019-02-11T12:03:07.297Z,293.48
2019-02-11T12:04:15.635Z,292.89
2019-02-11T12:05:16.358Z,293.12
2019-02-11T12:06:14.515Z,293.01
2019-02-11T12:07:15.398Z,293.54
2019-02-11T12:09:24.933Z,292.65
2019-02-11T12:10:33.076Z,293.01
2019-02-11T12:11:31.898Z,293.20
2019-02-11T12:12:33.893Z,293.41
2019-02-11T12:13:33.800Z,293.01
2019-02-11T12:14:32.876Z,292.90
2019-02-11T12:16:55.989Z,292.43
2019-02-11T12:18:56.214Z,292.18
2019-02-11T12:21:07.795Z,292.56
2019-02-11T12:22:17.269Z,293.21
2019-02-11T12:23:07.247Z,293.63
2019-02-11T12:24:14.182Z,293.85
2019-02-11T12:25:07.339Z,294.15
2019-02-11T12:26:07.383Z,293.81
2019-02-11T12:27:07.207Z,293.76
2019-02-11T12:28:07.241Z,294.10
2019-02-11T12:29:07.223Z,294.54
2019-02-11T12:30:07.177Z,294.44
2019-02-11T12:31:07.103Z,294.62
2019-02-11T12:32:07.104Z,294.35
2019-02-11T12:33:07.104Z,293.96
2019-02-11T12:34:07.067Z,294.28
2019-02-11T12:35:07.846Z,293.85
2019-02-11T12:36:07.058Z,294.16
2019-02-11T12:37:09.537Z,293.77
2019-02-11T12:38:07.301Z,293.75
2019-02-11T12:39:08.080Z,293.18
2019-02-11T12:40:07.090Z,293.56
2019-02-11T12:41:07.065Z,293.61
2019-02-11T12:42:06.967Z,294.09
2019-02-11T12:43:14.992Z,294.14
2019-02-11T12:44:07.300Z,294.40
2019-02-11T12:45:07.375Z,294.69
2019-02-11T12:46:06.965Z,294.31